Time;durP1;ratioP1;P1;durP2;ratioP2;P2;SDS_P1;SDS_P2;PMS_P1;PMS_P2;Temp;Humidity;BMP_temperature;BMP_pressure;BME280_temperature;BME280_humidity;BME280_pressure;Samples;Min_cycle;Max_cycle;Signal;HPM_P1;HPM_P2
2021/12/10 00:00:58;;;;;;;17.30;7.00;;;;;;;-145.18;100.00;60484.78;5021750;28;20071;-66
2021/12/10 00:03:34;;;;;;;21.03;7.33;;;;;;;-145.18;100.00;60484.78;5021133;28;20296;-66
2021/12/10 00:06:11;;;;;;;17.77;7.53;;;;;;;-145.18;100.00;60484.78;5021476;28;20052;-66
2021/12/10 00:08:41;;;;;;;16.13;7.53;;;;;;;-145.18;100.00;60484.78;5017265;28;20318;-66
2021/12/10 00:11:37;;;;;;;21.30;8.50;;;;;;;-145.18;100.00;60484.78;5021409;28;20256;-66
2021/12/10 00:14:05;;;;;;;15.70;6.80;;;;;;;-145.18;100.00;60484.78;5021307;28;20056;-66
2021/12/10 00:16:33;;;;;;;18.03;7.70;;;;;;;-145.18;100.00;60484.78;5022255;28;20108;-66
2021/12/10 00:19:12;;;;;;;18.20;7.33;;;;;;;-145.18;100.00;60484.78;5025407;28;20262;-66
2021/12/10 00:21:38;;;;;;;19.87;8.40;;;;;;;-145.18;100.00;60484.78;5025748;28;20083;-67
2021/12/10 00:24:04;;;;;;;17.70;7.83;;;;;;;-145.18;100.00;60484.78;5025900;28;20272;-67
2021/12/10 00:26:30;;;;;;;18.47;8.13;;;;;;;-145.18;100.00;60484.78;5026912;28;20028;-67
2021/12/10 00:29:02;;;;;;;17.23;7.10;;;;;;;-145.18;100.00;60484.78;5025520;28;20025;-66
2021/12/10 00:31:45;;;;;;;17.70;8.05;;;;;;;-145.18;100.00;60484.78;5025168;28;20056;-67
2021/12/10 00:34:34;;;;;;;21.53;8.00;;;;;;;-145.18;100.00;60484.78;5025186;28;20572;-66
2021/12/10 00:37:03;;;;;;;19.63;8.37;;;;;;;-145.18;100.00;60484.78;5032672;28;20036;-66
2021/12/10 00:39:48;;;;;;;17.67;8.33;;;;;;;-145.18;100.00;60484.78;5026540;28;20091;-67
2021/12/10 00:42:18;;;;;;;18.17;8.20;;;;;;;-145.18;100.00;60484.78;5024806;28;20489;-66
2021/12/10 00:44:44;;;;;;;19.73;8.03;;;;;;;-145.18;100.00;60484.78;5012909;28;20099;-66
2021/12/10 00:47:10;;;;;;;19.87;8.13;;;;;;;-145.18;100.00;60484.78;5024608;28;20826;-66
2021/12/10 00:49:36;;;;;;;25.10;8.97;;;;;;;-145.18;100.00;60484.78;5024756;28;20280;-66
2021/12/10 00:52:04;;;;;;;23.20;8.37;;;;;;;-145.18;100.00;60484.78;5025630;28;20063;-66
2021/12/10 00:54:29;;;;;;;18.90;8.10;;;;;;;-145.18;100.00;60484.78;5025157;28;20040;-67
2021/12/10 00:56:55;;;;;;;19.20;8.67;;;;;;;-145.18;100.00;60484.78;5024888;28;20037;-66
2021/12/10 00:59:20;;;;;;;18.57;7.90;;;;;;;-145.18;100.00;60484.78;5024601;28;20048;-66
2021/12/10 01:01:47;;;;;;;17.80;8.30;;;;;;;-145.18;100.00;60484.78;5024287;28;20410;-66
2021/12/10 01:04:17;;;;;;;22.03;8.53;;;;;;;-145.18;100.00;60484.78;5023518;28;20124;-66
2021/12/10 01:06:46;;;;;;;22.50;7.83;;;;;;;-145.18;100.00;60484.78;5024298;28;20030;-66
2021/12/10 01:09:16;;;;;;;17.23;6.70;;;;;;;-145.18;100.00;60484.78;5023249;28;20285;-67
2021/12/10 01:11:50;;;;;;;19.57;7.77;;;;;;;-145.18;100.00;60484.78;5023725;28;20671;-66
2021/12/10 01:14:26;;;;;;;16.67;7.70;;;;;;;-145.18;100.00;60484.78;5024364;28;20626;-67
2021/12/10 01:25:24;;;;;;;18.53;8.40;;;;;;;-145.18;100.00;60484.78;5023992;28;20628;-66
2021/12/10 01:27:49;;;;;;;19.83;7.57;;;;;;;-145.18;100.00;60484.78;5024498;28;20033;-66
2021/12/10 01:30:17;;;;;;;18.70;8.03;;;;;;;-145.18;100.00;60484.78;5022314;28;20336;-66
2021/12/10 01:32:48;;;;;;;16.77;7.63;;;;;;;-145.18;100.00;60484.78;5018184;28;20034;-67
2021/12/10 01:35:21;;;;;;;17.23;7.83;;;;;;;-145.18;100.00;60484.78;5024142;28;20268;-66
2021/12/10 01:37:48;;;;;;;20.70;8.57;;;;;;;-145.18;100.00;60484.78;5013644;28;20781;-66
2021/12/10 01:40:14;;;;;;;18.33;8.33;;;;;;;-145.18;100.00;60484.78;5023910;28;20317;-66
2021/12/10 01:42:46;;;;;;;17.00;7.60;;;;;;;-145.18;100.00;60484.78;5023784;28;20949;-66
2021/12/10 01:45:25;;;;;;;18.63;7.53;;;;;;;-145.18;100.00;60484.78;5023701;28;20033;-66
2021/12/10 01:48:04;;;;;;;18.50;7.03;;;;;;;-145.18;100.00;60484.78;5023451;28;20560;-66
2021/12/10 01:50:30;;;;;;;16.13;7.07;;;;;;;-145.18;100.00;60484.78;5023560;28;20295;-66
2021/12/10 01:52:59;;;;;;;15.13;7.20;;;;;;;-145.18;100.00;60484.78;5020111;28;20688;-66
2021/12/10 01:55:27;;;;;;;15.57;7.40;;;;;;;-145.18;100.00;60484.78;5023418;28;20264;-66
2021/12/10 01:57:54;;;;;;;18.47;7.63;;;;;;;-145.18;100.00;60484.78;5023752;28;20760;-66
2021/12/10 02:00:22;;;;;;;15.60;7.20;;;;;;;-145.18;100.00;60484.78;5023379;28;20267;-66
2021/12/10 02:02:49;;;;;;;16.77;7.43;;;;;;;-145.18;100.00;60484.78;5036751;23;20822;-66
2021/12/10 02:05:16;;;;;;;16.73;7.57;;;;;;;-145.18;100.00;60484.78;5042294;28;20287;-66
2021/12/10 02:07:41;;;;;;;21.13;8.37;;;;;;;-145.18;100.00;60484.78;5037286;28;20267;-66
2021/12/10 02:10:08;;;;;;;15.67;6.83;;;;;;;-145.18;100.00;60484.78;5042657;28;20275;-66
2021/12/10 02:12:34;;;;;;;16.10;7.13;;;;;;;-145.18;100.00;60484.78;5042392;28;20136;-66
2021/12/10 02:15:02;;;;;;;16.90;7.03;;;;;;;-145.18;100.00;60484.78;5042722;28;20350;-66
2021/12/10 02:17:38;;;;;;;15.40;7.00;;;;;;;-145.18;100.00;60484.78;5042270;28;20080;-66
2021/12/10 02:20:17;;;;;;;16.50;7.53;;;;;;;-145.18;100.00;60484.78;5042244;28;20262;-66
2021/12/10 02:22:44;;;;;;;16.73;6.87;;;;;;;-145.18;100.00;60484.78;5041805;28;20699;-66
2021/12/10 02:25:11;;;;;;;13.83;6.20;;;;;;;-145.18;100.00;60484.78;5042285;28;20033;-66
2021/12/10 02:27:36;;;;;;;16.60;6.10;;;;;;;-145.18;100.00;60484.78;5041840;28;20283;-66
2021/12/10 02:30:06;;;;;;;16.93;7.17;;;;;;;-145.18;100.00;60484.78;5042161;28;20287;-66
2021/12/10 02:32:31;;;;;;;13.93;6.67;;;;;;;-145.18;100.00;60484.78;5042038;28;20443;-66
2021/12/10 02:34:57;;;;;;;15.53;7.20;;;;;;;-145.18;100.00;60484.78;5042215;28;20335;-66
2021/12/10 02:37:22;;;;;;;14.80;6.60;;;;;;;-145.18;100.00;60484.78;5041760;28;20664;-66
2021/12/10 02:39:48;;;;;;;17.03;6.63;;;;;;;-145.18;100.00;60484.78;5041789;28;20109;-66
2021/12/10 02:42:13;;;;;;;13.20;5.70;;;;;;;-145.18;100.00;60484.78;5041950;28;20055;-66
2021/12/10 02:44:39;;;;;;;16.90;7.03;;;;;;;-145.18;100.00;60484.78;5042238;28;20492;-67
2021/12/10 02:47:05;;;;;;;15.00;6.80;;;;;;;-145.18;100.00;60484.78;5041609;28;20694;-66
2021/12/10 02:49:31;;;;;;;15.93;6.50;;;;;;;-145.18;100.00;60484.78;5041620;28;20103;-66
2021/12/10 02:51:57;;;;;;;16.50;7.13;;;;;;;-145.18;100.00;60484.78;5041903;28;20025;-66
2021/12/10 02:54:33;;;;;;;14.00;6.00;;;;;;;-145.18;100.00;60484.78;5041683;28;20310;-66
2021/12/10 02:57:00;;;;;;;15.77;6.33;;;;;;;-145.18;100.00;60484.78;5041456;28;20280;-66
2021/12/10 02:59:26;;;;;;;13.50;6.10;;;;;;;-145.18;100.00;60484.78;5041288;28;20266;-66
2021/12/10 03:01:52;;;;;;;12.83;5.97;;;;;;;-145.18;100.00;60484.78;5040660;28;20271;-66
2021/12/10 03:04:18;;;;;;;13.27;6.30;;;;;;;-145.18;100.00;60484.78;5040610;28;20477;-66
2021/12/10 03:06:54;;;;;;;13.63;6.13;;;;;;;-145.18;100.00;60484.78;5039896;28;20298;-66
2021/12/10 03:09:21;;;;;;;14.50;6.40;;;;;;;-145.18;100.00;60484.78;5041240;28;20438;-66
2021/12/10 03:11:48;;;;;;;15.07;5.97;;;;;;;-145.18;100.00;60484.78;5040929;28;20275;-66
2021/12/10 03:14:17;;;;;;;12.83;6.10;;;;;;;-145.18;100.00;60484.78;5042543;28;20307;-66
2021/12/10 03:16:45;;;;;;;16.20;6.53;;;;;;;-145.18;100.00;60484.78;5022081;28;20803;-66
2021/12/10 03:19:11;;;;;;;13.93;6.33;;;;;;;-145.18;100.00;60484.78;5034950;28;21033;-66
2021/12/10 03:21:39;;;;;;;14.57;6.50;;;;;;;-145.18;100.00;60484.78;5032778;28;20749;-66
2021/12/10 03:24:05;;;;;;;14.03;6.00;;;;;;;-145.18;100.00;60484.78;5035290;28;20275;-66
2021/12/10 03:26:31;;;;;;;16.03;6.37;;;;;;;-145.18;100.00;60484.78;5040816;28;20354;-66
2021/12/10 03:28:57;;;;;;;12.60;5.57;;;;;;;-145.18;100.00;60484.78;5041409;28;20398;-66
2021/12/10 03:31:26;;;;;;;10.70;5.50;;;;;;;-145.18;100.00;60484.78;5039821;28;20099;-66
2021/12/10 03:33:54;;;;;;;11.47;5.20;;;;;;;-145.18;100.00;60484.78;5041083;28;20489;-66
2021/12/10 03:36:19;;;;;;;13.60;6.10;;;;;;;-145.18;100.00;60484.78;5040811;28;20315;-66
2021/12/10 03:38:46;;;;;;;13.73;5.73;;;;;;;-145.18;100.00;60484.78;5040630;28;20627;-66
2021/12/10 03:41:12;;;;;;;13.10;5.67;;;;;;;-145.18;100.00;60484.78;5038888;28;20036;-66
2021/12/10 03:43:39;;;;;;;12.87;5.70;;;;;;;-145.18;100.00;60484.78;5039424;28;20267;-66
2021/12/10 03:46:06;;;;;;;12.23;5.73;;;;;;;-145.18;100.00;60484.78;5040109;28;20272;-66
2021/12/10 03:48:35;;;;;;;12.97;5.60;;;;;;;-145.18;100.00;60484.78;5035191;28;20754;-66
2021/12/10 03:51:05;;;;;;;13.73;5.77;;;;;;;-145.18;100.00;60484.78;5040364;28;20405;-66
2021/12/10 03:53:30;;;;;;;14.23;5.97;;;;;;;-145.18;100.00;60484.78;5040371;28;20270;-66
2021/12/10 03:55:59;;;;;;;12.10;5.63;;;;;;;-145.18;100.00;60484.78;5045566;28;20267;-70
2021/12/10 03:58:25;;;;;;;12.57;5.17;;;;;;;-145.18;100.00;60484.78;5040279;28;20043;-70
2021/12/10 04:00:55;;;;;;;12.37;5.87;;;;;;;-145.18;100.00;60484.78;5036976;28;20939;-70
2021/12/10 04:03:23;;;;;;;12.70;5.17;;;;;;;-145.18;100.00;60484.78;5041112;28;20485;-70
2021/12/10 04:05:49;;;;;;;12.17;4.93;;;;;;;-145.18;100.00;60484.78;5044913;28;20278;-70
2021/12/10 04:08:15;;;;;;;12.40;5.47;;;;;;;-145.18;100.00;60484.78;5042918;28;20287;-70
2021/12/10 04:10:41;;;;;;;12.77;5.43;;;;;;;-145.18;100.00;60484.78;5044595;28;20801;-70
2021/12/10 04:13:07;;;;;;;11.97;5.00;;;;;;;-145.18;100.00;60484.78;5044259;28;20036;-70
2021/12/10 04:15:35;;;;;;;13.00;5.10;;;;;;;-145.18;100.00;60484.78;5048680;28;20362;-70
2021/12/10 04:18:00;;;;;;;19.90;6.87;;;;;;;-145.18;100.00;60484.78;5031081;28;20033;-70
2021/12/10 04:20:28;;;;;;;11.53;5.67;;;;;;;-145.18;100.00;60484.78;5043812;28;20275;-70
2021/12/10 04:22:54;;;;;;;10.37;4.80;;;;;;;-145.18;100.00;60484.78;5039636;28;20108;-70
2021/12/10 04:25:24;;;;;;;9.00;4.23;;;;;;;-145.18;100.00;60484.78;5044683;28;20343;-70
2021/12/10 04:27:51;;;;;;;11.23;4.77;;;;;;;-145.18;100.00;60484.78;5043976;28;20098;-70
2021/12/10 04:30:17;;;;;;;10.03;5.40;;;;;;;-145.18;100.00;60484.78;5044342;28;20997;-70
2021/12/10 04:32:45;;;;;;;17.50;5.80;;;;;;;-145.18;100.00;60484.78;5039160;28;20275;-70
2021/12/10 04:35:13;;;;;;;10.27;5.03;;;;;;;-145.18;100.00;60484.78;5038258;28;20271;-70
2021/12/10 04:37:39;;;;;;;10.63;4.70;;;;;;;-145.18;100.00;60484.78;5039842;28;20282;-70
2021/12/10 04:40:08;;;;;;;12.20;5.60;;;;;;;-145.18;100.00;60484.78;5035189;28;20270;-70
2021/12/10 04:42:34;;;;;;;11.70;4.80;;;;;;;-145.18;100.00;60484.78;5043744;28;20826;-70
2021/12/10 04:45:01;;;;;;;10.53;5.37;;;;;;;-145.18;100.00;60484.78;5042489;28;20267;-70
2021/12/10 04:47:28;;;;;;;12.97;5.10;;;;;;;-145.18;100.00;60484.78;5043734;28;20059;-70
2021/12/10 04:49:54;;;;;;;10.23;4.50;;;;;;;-145.18;100.00;60484.78;5037266;28;20288;-70
2021/12/10 04:52:20;;;;;;;9.27;4.40;;;;;;;-145.18;100.00;60484.78;5034423;28;20268;-70
2021/12/10 04:54:46;;;;;;;11.10;5.00;;;;;;;-145.18;100.00;60484.78;5044290;28;20299;-71
2021/12/10 04:57:11;;;;;;;10.80;4.50;;;;;;;-145.18;100.00;60484.78;5037085;28;21014;-70
2021/12/10 04:59:39;;;;;;;11.37;4.87;;;;;;;-145.18;100.00;60484.78;5039504;28;20052;-70
2021/12/10 05:02:08;;;;;;;12.43;5.20;;;;;;;-145.18;100.00;60484.78;5038633;28;20099;-70
2021/12/10 05:04:34;;;;;;;9.43;4.87;;;;;;;-145.18;100.00;60484.78;5043752;28;20275;-70
2021/12/10 05:06:59;;;;;;;11.03;5.17;;;;;;;-145.18;100.00;60484.78;5041854;28;20534;-70
2021/12/10 05:09:26;;;;;;;9.73;4.00;;;;;;;-145.18;100.00;60484.78;5043599;28;20035;-70
2021/12/10 05:11:53;;;;;;;14.63;4.70;;;;;;;-145.18;100.00;60484.78;5042989;28;20031;-70
2021/12/10 05:14:20;;;;;;;15.43;5.13;;;;;;;-145.18;100.00;60484.78;5043671;28;20354;-70
2021/12/10 05:16:47;;;;;;;10.73;4.67;;;;;;;-145.18;100.00;60484.78;5037062;28;20276;-70
2021/12/10 05:19:16;;;;;;;12.33;4.93;;;;;;;-145.18;100.00;60484.78;5037034;28;20268;-70
2021/12/10 05:21:45;;;;;;;11.60;5.07;;;;;;;-145.18;100.00;60484.78;5037268;28;20278;-70
2021/12/10 05:24:11;;;;;;;10.60;4.90;;;;;;;-145.18;100.00;60484.78;5042855;28;20356;-70
2021/12/10 05:26:36;;;;;;;11.43;5.27;;;;;;;-145.18;100.00;60484.78;5039473;28;20356;-70
2021/12/10 05:29:05;;;;;;;9.53;4.20;;;;;;;-145.18;100.00;60484.78;5035275;28;20363;-70
2021/12/10 05:31:31;;;;;;;10.60;5.00;;;;;;;-145.18;100.00;60484.78;5042661;28;20441;-70
2021/12/10 05:33:56;;;;;;;14.53;5.60;;;;;;;-145.18;100.00;60484.78;5043014;28;20270;-70
2021/12/10 05:36:22;;;;;;;10.90;4.70;;;;;;;-145.18;100.00;60484.78;5039949;28;20069;-70
2021/12/10 05:38:47;;;;;;;12.00;4.80;;;;;;;-145.18;100.00;60484.78;5037324;28;20377;-70
2021/12/10 05:41:13;;;;;;;13.57;5.33;;;;;;;-145.18;100.00;60484.78;5042958;28;20113;-70
2021/12/10 05:43:41;;;;;;;13.07;5.37;;;;;;;-145.18;100.00;60484.78;5042138;28;20541;-70
2021/12/10 05:46:08;;;;;;;14.57;5.40;;;;;;;-145.18;100.00;60484.78;5042220;28;20167;-70
2021/12/10 05:48:35;;;;;;;13.57;5.50;;;;;;;-145.18;100.00;60484.78;5037384;28;20287;-72
2021/12/10 05:51:02;;;;;;;9.77;5.03;;;;;;;-145.18;100.00;60484.78;5042509;28;20275;-70
2021/12/10 05:53:28;;;;;;;13.90;5.50;;;;;;;-145.18;100.00;60484.78;5036110;28;20397;-70
2021/12/10 05:55:54;;;;;;;13.37;5.03;;;;;;;-145.18;100.00;60484.78;5040967;28;20263;-70
2021/12/10 05:58:21;;;;;;;13.60;5.30;;;;;;;-145.18;100.00;60484.78;5037830;28;20264;-70
2021/12/10 06:01:02;;;;;;;14.67;5.57;;;;;;;-145.18;100.00;60484.78;5042940;28;20040;-70
2021/12/10 06:03:29;;;;;;;12.60;5.33;;;;;;;-145.18;100.00;60484.78;5037097;28;20298;-70
2021/12/10 06:05:54;;;;;;;13.27;5.70;;;;;;;-145.18;100.00;60484.78;5042774;28;20271;-70
2021/12/10 06:08:21;;;;;;;11.83;5.37;;;;;;;-145.18;100.00;60484.78;5040603;28;20428;-70
2021/12/10 06:10:48;;;;;;;15.80;6.47;;;;;;;-145.18;100.00;60484.78;5042537;28;20110;-70
2021/12/10 06:13:14;;;;;;;14.77;6.40;;;;;;;-145.18;100.00;60484.78;5041984;28;20428;-70
2021/12/10 06:15:40;;;;;;;13.57;5.90;;;;;;;-145.18;100.00;60484.78;5045717;28;20279;-70
2021/12/10 06:18:06;;;;;;;13.13;5.03;;;;;;;-145.18;100.00;60484.78;5041886;28;20283;-70
2021/12/10 06:20:37;;;;;;;15.33;5.70;;;;;;;-145.18;100.00;60484.78;5042362;28;20025;-70
2021/12/10 06:23:04;;;;;;;14.70;5.93;;;;;;;-145.18;100.00;60484.78;5042121;28;20299;-71
2021/12/10 06:25:31;;;;;;;15.07;6.00;;;;;;;-145.18;100.00;60484.78;5042226;28;20267;-70
2021/12/10 06:27:58;;;;;;;14.83;5.40;;;;;;;-145.18;100.00;60484.78;5040715;28;20275;-70
2021/12/10 06:30:30;;;;;;;13.53;5.37;;;;;;;-145.18;100.00;60484.78;5042466;28;20763;-70
2021/12/10 06:32:57;;;;;;;15.10;6.17;;;;;;;-145.18;100.00;60484.78;5031329;28;20264;-70
2021/12/10 06:35:26;;;;;;;15.17;6.13;;;;;;;-145.18;100.00;60484.78;5041339;28;20871;-70
2021/12/10 06:37:53;;;;;;;13.97;5.33;;;;;;;-145.18;100.00;60484.78;5035744;28;20755;-70
2021/12/10 06:40:22;;;;;;;15.00;5.70;;;;;;;-145.18;100.00;60484.78;5042147;28;20817;-70
2021/12/10 06:42:49;;;;;;;13.70;5.83;;;;;;;-145.18;100.00;60484.78;5031590;28;20287;-70
2021/12/10 06:45:16;;;;;;;14.40;5.53;;;;;;;-145.18;100.00;60484.78;5041698;28;20260;-70
2021/12/10 06:47:47;;;;;;;13.83;6.47;;;;;;;-145.18;100.00;60484.78;5036341;28;20275;-70
2021/12/10 06:50:17;;;;;;;12.83;5.97;;;;;;;-145.18;100.00;60484.78;5041586;28;20306;-70
2021/12/10 06:52:43;;;;;;;15.37;6.73;;;;;;;-145.18;100.00;60484.78;5036788;28;20639;-70
2021/12/10 06:55:09;;;;;;;18.90;7.27;;;;;;;-145.18;100.00;60484.78;5040864;28;20295;-70
2021/12/10 06:57:37;;;;;;;14.50;6.37;;;;;;;-145.18;100.00;60484.78;5035881;28;20306;-70
2021/12/10 07:00:06;;;;;;;13.30;5.67;;;;;;;-145.18;100.00;60484.78;5037475;28;20474;-70
2021/12/10 07:02:32;;;;;;;18.17;7.83;;;;;;;-145.18;100.00;60484.78;5030082;28;20283;-70
2021/12/10 07:04:57;;;;;;;16.70;7.90;;;;;;;-145.18;100.00;60484.78;5034063;28;20283;-70
2021/12/10 07:07:22;;;;;;;15.40;7.30;;;;;;;-145.18;100.00;60484.78;5038223;28;20028;-70
2021/12/10 07:09:48;;;;;;;18.47;6.30;;;;;;;-145.18;100.00;60484.78;5040003;28;20659;-70
2021/12/10 07:12:13;;;;;;;13.70;5.63;;;;;;;-145.18;100.00;60484.78;5040503;28;20074;-70
2021/12/10 07:14:39;;;;;;;17.87;6.87;;;;;;;-145.18;100.00;60484.78;5044437;28;20064;-70
2021/12/10 07:17:05;;;;;;;21.13;8.13;;;;;;;-145.18;100.00;60484.78;5038883;28;20036;-70
2021/12/10 07:19:30;;;;;;;16.50;5.73;;;;;;;-145.18;100.00;60484.78;5038293;28;20552;-70
2021/12/10 07:21:56;;;;;;;18.27;6.60;;;;;;;-145.18;100.00;60484.78;5035435;28;20279;-70
2021/12/10 07:24:21;;;;;;;19.67;7.27;;;;;;;-145.18;100.00;60484.78;5036707;28;20037;-70
2021/12/10 07:26:48;;;;;;;12.60;5.33;;;;;;;-145.18;100.00;60484.78;5035454;28;20053;-70
2021/12/10 07:29:14;;;;;;;17.27;7.37;;;;;;;-145.18;100.00;60484.78;5023929;28;20639;-70
2021/12/10 07:31:41;;;;;;;15.47;6.30;;;;;;;-145.18;100.00;60484.78;5027809;28;20283;-70
2021/12/10 07:34:07;;;;;;;16.03;6.00;;;;;;;-145.18;100.00;60484.78;5029569;28;20091;-70
2021/12/10 07:36:33;;;;;;;19.13;5.40;;;;;;;-145.18;100.00;60484.78;5039789;28;20773;-70
2021/12/10 07:38:58;;;;;;;16.40;6.47;;;;;;;-145.18;100.00;60484.78;5038042;28;20468;-70
2021/12/10 07:41:24;;;;;;;13.63;6.03;;;;;;;-145.18;100.00;60484.78;5037764;28;20110;-70
2021/12/10 07:43:50;;;;;;;16.70;6.30;;;;;;;-145.18;100.00;60484.78;5036654;28;20032;-70
2021/12/10 07:46:16;;;;;;;14.63;6.00;;;;;;;-145.18;100.00;60484.78;5030343;28;20267;-70
2021/12/10 07:48:43;;;;;;;13.73;5.83;;;;;;;-145.18;100.00;60484.78;5040261;28;20172;-70
2021/12/10 07:51:17;;;;;;;19.33;6.27;;;;;;;-145.18;100.00;60484.78;5039055;28;20029;-70
2021/12/10 07:53:44;;;;;;;14.30;6.30;;;;;;;-145.18;100.00;60484.78;5024216;28;20279;-71
2021/12/10 07:56:12;;;;;;;14.53;5.77;;;;;;;-145.18;100.00;60484.78;5028600;28;20279;-70
2021/12/10 07:58:40;;;;;;;8.77;3.80;;;;;;;-145.18;100.00;60484.78;5039436;28;20743;-70
2021/12/10 08:01:08;;;;;;;36.03;6.87;;;;;;;-145.18;100.00;60484.78;5029136;28;20287;-70
2021/12/10 08:03:34;;;;;;;40.47;7.87;;;;;;;-145.18;100.00;60484.78;5033543;28;20295;-70
2021/12/10 08:06:00;;;;;;;14.23;6.00;;;;;;;-145.18;100.00;60484.78;5038049;28;20276;-70
2021/12/10 08:08:25;;;;;;;12.60;5.60;;;;;;;-145.18;100.00;60484.78;5032229;28;20044;-70
2021/12/10 08:10:51;;;;;;;12.87;4.97;;;;;;;-145.18;100.00;60484.78;5031697;28;20104;-70
2021/12/10 08:13:21;;;;;;;11.93;4.67;;;;;;;-145.18;100.00;60484.78;5040062;28;20052;-70
2021/12/10 08:15:48;;;;;;;25.20;5.97;;;;;;;-145.18;100.00;60484.78;5041197;28;20539;-70
2021/12/10 08:18:13;;;;;;;10.50;4.50;;;;;;;-145.18;100.00;60484.78;5040488;28;20271;-70
2021/12/10 08:20:38;;;;;;;10.03;4.47;;;;;;;-145.18;100.00;60484.78;5040833;28;20272;-70
2021/12/10 08:23:04;;;;;;;12.03;4.33;;;;;;;-145.18;100.00;60484.78;5032059;28;20044;-70
2021/12/10 08:25:30;;;;;;;9.93;4.40;;;;;;;-145.18;100.00;60484.78;5040733;28;20021;-70
2021/12/10 08:27:57;;;;;;;10.37;4.00;;;;;;;-145.18;100.00;60484.78;5034609;28;20032;-70
2021/12/10 08:30:24;;;;;;;8.47;3.50;;;;;;;-145.18;100.00;60484.78;5041099;28;20033;-70
2021/12/10 08:32:54;;;;;;;10.17;4.00;;;;;;;-145.18;100.00;60484.78;5033148;28;20029;-70
2021/12/10 08:35:23;;;;;;;10.47;3.87;;;;;;;-145.18;100.00;60484.78;5040613;28;20084;-70
2021/12/10 08:37:53;;;;;;;9.57;3.67;;;;;;;-145.18;100.00;60484.78;5041148;28;20029;-70
2021/12/10 08:40:24;;;;;;;10.50;4.50;;;;;;;-145.18;100.00;60484.78;5044342;28;20078;-70
2021/12/10 08:42:50;;;;;;;11.57;4.10;;;;;;;-145.18;100.00;60484.78;5039585;28;20624;-70
2021/12/10 08:45:18;;;;;;;8.97;3.57;;;;;;;-145.18;100.00;60484.78;5043802;28;20461;-70
2021/12/10 08:47:44;;;;;;;9.63;4.17;;;;;;;-145.18;100.00;60484.78;5039779;28;20041;-70
2021/12/10 08:50:09;;;;;;;10.73;4.00;;;;;;;-145.18;100.00;60484.78;5041310;28;20028;-70
2021/12/10 08:52:35;;;;;;;8.13;3.80;;;;;;;-145.18;100.00;60484.78;5042759;28;20493;-70
2021/12/10 08:55:02;;;;;;;9.37;3.63;;;;;;;-145.18;100.00;60484.78;5044177;28;20083;-70
2021/12/10 08:57:28;;;;;;;8.40;2.80;;;;;;;-145.18;100.00;60484.78;5042317;28;20592;-70
2021/12/10 08:59:53;;;;;;;10.37;4.30;;;;;;;-145.18;100.00;60484.78;5043710;28;20021;-70
2021/12/10 09:02:19;;;;;;;13.47;4.47;;;;;;;-145.18;100.00;60484.78;5036065;28;20044;-70
2021/12/10 09:04:45;;;;;;;11.83;4.40;;;;;;;-145.18;100.00;60484.78;5040202;28;20029;-70
2021/12/10 09:07:13;;;;;;;9.03;3.20;;;;;;;-145.18;100.00;60484.78;5042416;28;20039;-70
2021/12/10 09:09:41;;;;;;;8.73;4.10;;;;;;;-145.18;100.00;60484.78;5043409;28;20776;-70
2021/12/10 09:12:16;;;;;;;9.97;4.50;;;;;;;-145.18;100.00;60484.78;5034783;28;20268;-70
2021/12/10 09:14:46;;;;;;;13.23;4.97;;;;;;;-145.18;100.00;60484.78;5043966;28;20684;-70
2021/12/10 09:17:17;;;;;;;9.20;3.80;;;;;;;-145.18;100.00;60484.78;5043469;28;20263;-70
2021/12/10 09:19:43;;;;;;;17.03;4.27;;;;;;;-145.18;100.00;60484.78;5042774;28;20359;-70
2021/12/10 09:22:09;;;;;;;16.17;5.20;;;;;;;-145.18;100.00;60484.78;5033702;28;20306;-70
2021/12/10 09:24:37;;;;;;;12.27;4.30;;;;;;;-145.18;100.00;60484.78;5041767;28;20674;-70
2021/12/10 09:27:03;;;;;;;10.03;3.90;;;;;;;-145.18;100.00;60484.78;5043257;28;20267;-70
2021/12/10 09:29:35;;;;;;;10.07;4.40;;;;;;;-145.18;100.00;60484.78;5036048;28;21042;-70
2021/12/10 09:32:01;;;;;;;10.63;4.40;;;;;;;-145.18;100.00;60484.78;5034924;28;20268;-70
2021/12/10 09:34:26;;;;;;;7.03;3.33;;;;;;;-145.18;100.00;60484.78;5042832;28;20047;-70
2021/12/10 09:36:54;;;;;;;39.87;7.80;;;;;;;-145.18;100.00;60484.78;5042964;28;20511;-70
2021/12/10 09:39:20;;;;;;;9.03;3.63;;;;;;;-145.18;100.00;60484.78;5035721;28;20017;-70
2021/12/10 09:41:46;;;;;;;9.40;4.40;;;;;;;-145.18;100.00;60484.78;5042378;28;20370;-70
2021/12/10 09:44:12;;;;;;;9.07;3.13;;;;;;;-145.18;100.00;60484.78;5043025;28;20953;-70
2021/12/10 09:46:39;;;;;;;20.80;5.37;;;;;;;-145.18;100.00;60484.78;5037496;28;20272;-70
2021/12/10 09:49:08;;;;;;;7.77;3.33;;;;;;;-145.18;100.00;60484.78;5041255;28;20284;-71
2021/12/10 09:51:38;;;;;;;7.53;3.23;;;;;;;-145.18;100.00;60484.78;5030629;28;20276;-70
2021/12/10 09:54:10;;;;;;;11.50;3.87;;;;;;;-145.18;100.00;60484.78;5029908;28;20263;-70
2021/12/10 09:56:42;;;;;;;10.35;3.42;;;;;;;-145.18;100.00;60484.78;5037938;28;20303;-70
2021/12/10 09:59:08;;;;;;;8.47;4.07;;;;;;;-145.18;100.00;60484.78;5029656;28;20493;-70
2021/12/10 10:01:41;;;;;;;8.70;3.90;;;;;;;-145.18;100.00;60484.78;5038141;28;20264;-70
2021/12/10 10:04:10;;;;;;;9.20;3.43;;;;;;;-145.18;100.00;60484.78;5037042;28;20048;-70
2021/12/10 10:06:46;;;;;;;11.93;4.57;;;;;;;-145.18;100.00;60484.78;5041131;28;20272;-70
2021/12/10 10:09:17;;;;;;;10.07;3.73;;;;;;;-145.18;100.00;60484.78;5042478;28;20311;-70
2021/12/10 10:11:43;;;;;;;9.67;3.90;;;;;;;-145.18;100.00;60484.78;5040810;28;20262;-70
2021/12/10 10:14:09;;;;;;;9.40;3.93;;;;;;;-145.18;100.00;60484.78;5042427;28;20655;-70
2021/12/10 10:16:35;;;;;;;9.47;4.07;;;;;;;-145.18;100.00;60484.78;5041818;28;20764;-70
2021/12/10 10:19:05;;;;;;;8.23;3.63;;;;;;;-145.18;100.00;60484.78;5042618;28;20817;-70
2021/12/10 10:21:37;;;;;;;9.43;4.10;;;;;;;-145.18;100.00;60484.78;5041692;28;20397;-70
2021/12/10 10:24:05;;;;;;;8.73;3.70;;;;;;;-145.18;100.00;60484.78;5042868;28;20277;-70
2021/12/10 10:26:35;;;;;;;8.03;3.50;;;;;;;-145.18;100.00;60484.78;5038273;28;20683;-70
2021/12/10 10:29:05;;;;;;;8.40;3.70;;;;;;;-145.18;100.00;60484.78;5035160;28;20348;-70
2021/12/10 10:31:31;;;;;;;7.67;3.70;;;;;;;-145.18;100.00;60484.78;5036615;28;20651;-70
2021/12/10 10:33:59;;;;;;;8.03;3.50;;;;;;;-145.18;100.00;60484.78;5041927;28;20275;-70
2021/12/10 10:36:29;;;;;;;9.43;4.07;;;;;;;-145.18;100.00;60484.78;5038576;28;20272;-70
2021/12/10 10:39:10;;;;;;;10.03;3.50;;;;;;;-145.18;100.00;60484.78;5036749;28;21087;-70
2021/12/10 10:41:37;;;;;;;10.13;3.67;;;;;;;-145.18;100.00;60484.78;5041337;28;20271;-70
2021/12/10 10:44:05;;;;;;;8.30;3.57;;;;;;;-145.18;100.00;60484.78;5041984;28;20285;-70
2021/12/10 10:46:32;;;;;;;9.53;3.27;;;;;;;-145.18;100.00;60484.78;5037703;28;20788;-70
2021/12/10 10:48:57;;;;;;;7.50;3.00;;;;;;;-145.18;100.00;60484.78;5038228;28;20345;-70
2021/12/10 10:51:34;;;;;;;8.50;3.40;;;;;;;-145.18;100.00;60484.78;5038660;28;20272;-70
2021/12/10 10:54:04;;;;;;;5.63;2.87;;;;;;;-145.18;100.00;60484.78;5039513;28;20040;-70
2021/12/10 10:56:41;;;;;;;7.57;3.17;;;;;;;-145.18;100.00;60484.78;5041481;28;20140;-70
2021/12/10 10:59:18;;;;;;;5.77;2.93;;;;;;;-145.18;100.00;60484.78;5031649;28;20362;-70
2021/12/10 11:01:57;;;;;;;7.30;3.20;;;;;;;-145.18;100.00;60484.78;5040718;28;20302;-70
2021/12/10 11:04:45;;;;;;;6.17;2.83;;;;;;;-145.18;100.00;60484.78;5039086;28;20028;-70
2021/12/10 11:07:16;;;;;;;7.17;3.00;;;;;;;-145.18;100.00;60484.78;5039687;28;20159;-70
2021/12/10 11:09:53;;;;;;;8.43;3.03;;;;;;;-145.18;100.00;60484.78;5041382;28;20037;-70
2021/12/10 11:12:27;;;;;;;8.33;2.83;;;;;;;-145.18;100.00;60484.78;5041213;28;20040;-70
2021/12/10 11:14:55;;;;;;;8.43;3.00;;;;;;;-145.18;100.00;60484.78;5040046;28;20336;-70